sensor_id;sensor_type;location;lat;lon;timestamp;temperature;humidity
38325;DHT22;24126;52.672;13.622;2023-02-02T00:02:10;8.90;74.50
38325;DHT22;24126;52.672;13.622;2023-02-02T00:04:37;8.90;74.40
38325;DHT22;24126;52.672;13.622;2023-02-02T00:07:04;8.90;74.30
38325;DHT22;24126;52.672;13.622;2023-02-02T00:09:32;8.90;75.10
38325;DHT22;24126;52.672;13.622;2023-02-02T00:11:59;9.00;74.50
38325;DHT22;24126;52.672;13.622;2023-02-02T00:14:26;8.90;74.40
38325;DHT22;24126;52.672;13.622;2023-02-02T00:16:54;8.90;74.50
38325;DHT22;24126;52.672;13.622;2023-02-02T00:19:25;9.00;74.50
38325;DHT22;24126;52.672;13.622;2023-02-02T00:21:53;9.00;74.50
38325;DHT22;24126;52.672;13.622;2023-02-02T00:24:20;9.00;74.50
38325;DHT22;24126;52.672;13.622;2023-02-02T00:26:52;9.00;74.50
38325;DHT22;24126;52.672;13.622;2023-02-02T00:29:21;9.10;74.50
38325;DHT22;24126;52.672;13.622;2023-02-02T00:31:48;9.10;74.40
38325;DHT22;24126;52.672;13.622;2023-02-02T00:34:15;9.10;74.50
38325;DHT22;24126;52.672;13.622;2023-02-02T00:36:43;9.10;74.40
38325;DHT22;24126;52.672;13.622;2023-02-02T00:39:12;9.00;74.40
38325;DHT22;24126;52.672;13.622;2023-02-02T00:41:40;9.00;74.50
38325;DHT22;24126;52.672;13.622;2023-02-02T00:44:07;9.00;74.50
38325;DHT22;24126;52.672;13.622;2023-02-02T00:46:52;9.00;74.60
38325;DHT22;24126;52.672;13.622;2023-02-02T00:49:19;9.00;74.70
38325;DHT22;24126;52.672;13.622;2023-02-02T00:51:46;9.00;74.80
38325;DHT22;24126;52.672;13.622;2023-02-02T00:54:13;9.10;74.80
38325;DHT22;24126;52.672;13.622;2023-02-02T00:56:41;9.10;75.50
38325;DHT22;24126;52.672;13.622;2023-02-02T00:59:08;9.10;75.00
38325;DHT22;24126;52.672;13.622;2023-02-02T01:01:35;9.10;74.90
38325;DHT22;24126;52.672;13.622;2023-02-02T01:04:02;9.10;75.00
38325;DHT22;24126;52.672;13.622;2023-02-02T01:06:29;9.10;75.00
38325;DHT22;24126;52.672;13.622;2023-02-02T01:08:56;9.00;75.10
38325;DHT22;24126;52.672;13.622;2023-02-02T01:11:24;9.10;75.30
38325;DHT22;24126;52.672;13.622;2023-02-02T01:13:51;9.10;76.10
38325;DHT22;24126;52.672;13.622;2023-02-02T01:16:18;9.10;75.50
38325;DHT22;24126;52.672;13.622;2023-02-02T01:18:47;9.10;75.60
38325;DHT22;24126;52.672;13.622;2023-02-02T01:21:14;9.10;75.80
38325;DHT22;24126;52.672;13.622;2023-02-02T01:23:41;9.10;75.90
38325;DHT22;24126;52.672;13.622;2023-02-02T01:26:08;9.10;75.90
38325;DHT22;24126;52.672;13.622;2023-02-02T01:28:36;9.10;76.10
38325;DHT22;24126;52.672;13.622;2023-02-02T01:31:10;9.10;76.20
38325;DHT22;24126;52.672;13.622;2023-02-02T01:33:37;9.10;76.30
38325;DHT22;24126;52.672;13.622;2023-02-02T01:36:06;9.00;76.40
38325;DHT22;24126;52.672;13.622;2023-02-02T01:38:33;9.00;76.50
38325;DHT22;24126;52.672;13.622;2023-02-02T01:41:00;9.00;76.60
38325;DHT22;24126;52.672;13.622;2023-02-02T01:43:47;9.00;76.80
38325;DHT22;24126;52.672;13.622;2023-02-02T01:46:28;9.00;77.00
38325;DHT22;24126;52.672;13.622;2023-02-02T01:48:59;9.00;77.00
38325;DHT22;24126;52.672;13.622;2023-02-02T01:51:32;9.00;77.70
38325;DHT22;24126;52.672;13.622;2023-02-02T01:54:00;9.00;77.10
38325;DHT22;24126;52.672;13.622;2023-02-02T01:56:36;9.00;77.20
38325;DHT22;24126;52.672;13.622;2023-02-02T01:59:05;9.00;77.10
38325;DHT22;24126;52.672;13.622;2023-02-02T02:01:32;9.00;77.40
38325;DHT22;24126;52.672;13.622;2023-02-02T02:03:59;9.00;77.30
38325;DHT22;24126;52.672;13.622;2023-02-02T02:06:27;9.00;77.40
38325;DHT22;24126;52.672;13.622;2023-02-02T02:08:59;9.00;77.40
38325;DHT22;24126;52.672;13.622;2023-02-02T02:11:28;9.00;77.40
38325;DHT22;24126;52.672;13.622;2023-02-02T02:13:56;9.00;77.40
38325;DHT22;24126;52.672;13.622;2023-02-02T02:16:49;9.00;77.40
38325;DHT22;24126;52.672;13.622;2023-02-02T02:22:06;9.00;77.70
38325;DHT22;24126;52.672;13.622;2023-02-02T02:33:21;9.00;78.00
38325;DHT22;24126;52.672;13.622;2023-02-02T02:36:09;9.00;77.90
38325;DHT22;24126;52.672;13.622;2023-02-02T02:38:44;9.00;78.00
38325;DHT22;24126;52.672;13.622;2023-02-02T02:41:15;9.00;78.00
38325;DHT22;24126;52.672;13.622;2023-02-02T02:43:54;9.00;77.90
38325;DHT22;24126;52.672;13.622;2023-02-02T02:46:22;9.00;77.90
38325;DHT22;24126;52.672;13.622;2023-02-02T02:48:49;9.00;77.90
38325;DHT22;24126;52.672;13.622;2023-02-02T02:54:03;9.10;77.90
38325;DHT22;24126;52.672;13.622;2023-02-02T02:56:32;9.10;77.80
38325;DHT22;24126;52.672;13.622;2023-02-02T03:02:32;9.10;77.80
38325;DHT22;24126;52.672;13.622;2023-02-02T03:04:45;9.10;77.70
38325;DHT22;24126;52.672;13.622;2023-02-02T03:07:31;9.10;77.80
38325;DHT22;24126;52.672;13.622;2023-02-02T03:10:00;9.10;77.70
38325;DHT22;24126;52.672;13.622;2023-02-02T03:12:28;9.10;77.60
38325;DHT22;24126;52.672;13.622;2023-02-02T03:14:55;9.20;77.50
38325;DHT22;24126;52.672;13.622;2023-02-02T03:17:22;9.10;77.50
38325;DHT22;24126;52.672;13.622;2023-02-02T03:19:49;9.10;77.50
38325;DHT22;24126;52.672;13.622;2023-02-02T03:22:16;9.10;77.50
38325;DHT22;24126;52.672;13.622;2023-02-02T03:24:43;9.10;77.60
38325;DHT22;24126;52.672;13.622;2023-02-02T03:27:10;9.10;77.50
38325;DHT22;24126;52.672;13.622;2023-02-02T03:29:37;9.10;77.50
38325;DHT22;24126;52.672;13.622;2023-02-02T03:32:04;9.20;77.40
38325;DHT22;24126;52.672;13.622;2023-02-02T03:34:32;9.20;77.20
38325;DHT22;24126;52.672;13.622;2023-02-02T03:36:59;9.20;77.20
38325;DHT22;24126;52.672;13.622;2023-02-02T03:39:26;9.20;77.20
38325;DHT22;24126;52.672;13.622;2023-02-02T03:41:53;9.20;77.20
38325;DHT22;24126;52.672;13.622;2023-02-02T03:44:20;9.20;77.20
38325;DHT22;24126;52.672;13.622;2023-02-02T03:46:46;9.20;77.20
38325;DHT22;24126;52.672;13.622;2023-02-02T03:49:13;9.20;77.20
38325;DHT22;24126;52.672;13.622;2023-02-02T03:51:41;9.20;77.30
38325;DHT22;24126;52.672;13.622;2023-02-02T03:54:09;9.20;77.20
38325;DHT22;24126;52.672;13.622;2023-02-02T03:56:36;9.20;77.30
38325;DHT22;24126;52.672;13.622;2023-02-02T03:59:03;9.20;77.30
38325;DHT22;24126;52.672;13.622;2023-02-02T04:01:30;9.20;77.30
38325;DHT22;24126;52.672;13.622;2023-02-02T04:03:57;9.20;77.20
38325;DHT22;24126;52.672;13.622;2023-02-02T04:06:24;9.30;77.30
38325;DHT22;24126;52.672;13.622;2023-02-02T04:08:51;9.30;77.20
38325;DHT22;24126;52.672;13.622;2023-02-02T04:11:18;9.30;77.10
38325;DHT22;24126;52.672;13.622;2023-02-02T04:13:45;9.30;77.10
38325;DHT22;24126;52.672;13.622;2023-02-02T04:16:12;9.30;77.10
38325;DHT22;24126;52.672;13.622;2023-02-02T04:18:39;9.30;77.00
38325;DHT22;24126;52.672;13.622;2023-02-02T04:21:06;9.40;77.10
38325;DHT22;24126;52.672;13.622;2023-02-02T04:23:34;9.40;77.10
38325;DHT22;24126;52.672;13.622;2023-02-02T04:26:01;9.40;77.20
38325;DHT22;24126;52.672;13.622;2023-02-02T04:28:28;9.40;77.20
38325;DHT22;24126;52.672;13.622;2023-02-02T04:30:55;9.40;77.20
38325;DHT22;24126;52.672;13.622;2023-02-02T04:33:23;9.40;77.20
38325;DHT22;24126;52.672;13.622;2023-02-02T04:35:50;9.40;77.20
38325;DHT22;24126;52.672;13.622;2023-02-02T04:38:17;9.40;77.40
38325;DHT22;24126;52.672;13.622;2023-02-02T04:40:45;9.40;77.50
38325;DHT22;24126;52.672;13.622;2023-02-02T04:43:12;9.40;77.60
38325;DHT22;24126;52.672;13.622;2023-02-02T04:45:40;9.30;77.50
38325;DHT22;24126;52.672;13.622;2023-02-02T04:48:07;9.40;77.60
38325;DHT22;24126;52.672;13.622;2023-02-02T04:50:35;9.40;77.60
38325;DHT22;24126;52.672;13.622;2023-02-02T04:53:02;9.40;77.60
38325;DHT22;24126;52.672;13.622;2023-02-02T04:55:29;9.40;77.80
38325;DHT22;24126;52.672;13.622;2023-02-02T04:57:56;9.40;77.60
38325;DHT22;24126;52.672;13.622;2023-02-02T05:00:23;9.50;78.20
38325;DHT22;24126;52.672;13.622;2023-02-02T05:02:50;9.40;77.30
38325;DHT22;24126;52.672;13.622;2023-02-02T05:05:17;9.40;77.30
38325;DHT22;24126;52.672;13.622;2023-02-02T05:07:45;9.40;77.30
38325;DHT22;24126;52.672;13.622;2023-02-02T05:10:12;9.40;77.20
38325;DHT22;24126;52.672;13.622;2023-02-02T05:12:39;9.40;77.30
38325;DHT22;24126;52.672;13.622;2023-02-02T05:15:07;9.40;77.30
38325;DHT22;24126;52.672;13.622;2023-02-02T05:17:34;9.40;77.20
38325;DHT22;24126;52.672;13.622;2023-02-02T05:20:01;9.40;76.90
38325;DHT22;24126;52.672;13.622;2023-02-02T05:22:28;9.30;77.00
38325;DHT22;24126;52.672;13.622;2023-02-02T05:24:55;9.30;77.10
38325;DHT22;24126;52.672;13.622;2023-02-02T05:27:22;9.30;77.30
38325;DHT22;24126;52.672;13.622;2023-02-02T05:29:49;9.20;77.30
38325;DHT22;24126;52.672;13.622;2023-02-02T05:32:16;9.20;77.40
38325;DHT22;24126;52.672;13.622;2023-02-02T05:34:43;9.20;77.40
38325;DHT22;24126;52.672;13.622;2023-02-02T05:37:10;9.20;77.50
38325;DHT22;24126;52.672;13.622;2023-02-02T05:39:37;9.20;77.50
38325;DHT22;24126;52.672;13.622;2023-02-02T05:42:04;9.20;77.50
38325;DHT22;24126;52.672;13.622;2023-02-02T05:44:31;9.20;77.60
38325;DHT22;24126;52.672;13.622;2023-02-02T05:46:58;9.20;77.70
38325;DHT22;24126;52.672;13.622;2023-02-02T05:49:25;9.20;77.50
38325;DHT22;24126;52.672;13.622;2023-02-02T05:51:55;9.20;77.40
38325;DHT22;24126;52.672;13.622;2023-02-02T05:54:23;9.20;77.50
38325;DHT22;24126;52.672;13.622;2023-02-02T05:56:51;9.20;77.40
38325;DHT22;24126;52.672;13.622;2023-02-02T05:59:22;9.20;77.50
38325;DHT22;24126;52.672;13.622;2023-02-02T06:01:50;9.20;77.50
38325;DHT22;24126;52.672;13.622;2023-02-02T06:04:17;9.20;77.40
38325;DHT22;24126;52.672;13.622;2023-02-02T06:06:44;9.20;77.40
38325;DHT22;24126;52.672;13.622;2023-02-02T06:09:12;9.20;77.40
38325;DHT22;24126;52.672;13.622;2023-02-02T06:11:41;9.20;77.20
38325;DHT22;24126;52.672;13.622;2023-02-02T06:14:08;9.10;77.10
38325;DHT22;24126;52.672;13.622;2023-02-02T06:16:35;9.10;77.00
38325;DHT22;24126;52.672;13.622;2023-02-02T06:19:02;9.10;77.00
38325;DHT22;24126;52.672;13.622;2023-02-02T06:21:29;9.10;76.80
38325;DHT22;24126;52.672;13.622;2023-02-02T06:23:57;9.10;76.80
38325;DHT22;24126;52.672;13.622;2023-02-02T06:26:24;9.10;76.80
38325;DHT22;24126;52.672;13.622;2023-02-02T06:28:52;9.10;76.80
38325;DHT22;24126;52.672;13.622;2023-02-02T06:31:19;9.10;77.40
38325;DHT22;24126;52.672;13.622;2023-02-02T06:33:47;9.10;76.60
38325;DHT22;24126;52.672;13.622;2023-02-02T06:36:14;9.10;76.60
38325;DHT22;24126;52.672;13.622;2023-02-02T06:38:41;9.10;76.60
38325;DHT22;24126;52.672;13.622;2023-02-02T06:41:08;9.10;76.60
38325;DHT22;24126;52.672;13.622;2023-02-02T06:43:35;9.20;76.60
38325;DHT22;24126;52.672;13.622;2023-02-02T06:46:02;9.20;76.40
38325;DHT22;24126;52.672;13.622;2023-02-02T06:48:29;9.20;76.30
38325;DHT22;24126;52.672;13.622;2023-02-02T06:50:57;9.20;76.20
38325;DHT22;24126;52.672;13.622;2023-02-02T06:53:25;9.20;76.00
38325;DHT22;24126;52.672;13.622;2023-02-02T06:55:52;9.20;76.00
38325;DHT22;24126;52.672;13.622;2023-02-02T06:58:20;9.20;75.90
38325;DHT22;24126;52.672;13.622;2023-02-02T07:00:47;9.20;75.70
38325;DHT22;24126;52.672;13.622;2023-02-02T07:03:15;9.20;75.70
38325;DHT22;24126;52.672;13.622;2023-02-02T07:05:42;9.20;75.50
38325;DHT22;24126;52.672;13.622;2023-02-02T07:08:09;9.20;75.30
38325;DHT22;24126;52.672;13.622;2023-02-02T07:10:36;9.20;75.20
38325;DHT22;24126;52.672;13.622;2023-02-02T07:13:03;9.20;75.10
38325;DHT22;24126;52.672;13.622;2023-02-02T07:15:32;9.20;74.90
38325;DHT22;24126;52.672;13.622;2023-02-02T07:17:59;9.20;74.80
38325;DHT22;24126;52.672;13.622;2023-02-02T07:20:26;9.20;74.80
38325;DHT22;24126;52.672;13.622;2023-02-02T07:22:53;9.20;74.60
38325;DHT22;24126;52.672;13.622;2023-02-02T07:25:20;9.30;74.60
38325;DHT22;24126;52.672;13.622;2023-02-02T07:27:51;9.30;74.40
38325;DHT22;24126;52.672;13.622;2023-02-02T07:30:18;9.30;74.40
38325;DHT22;24126;52.672;13.622;2023-02-02T07:32:46;9.30;74.10
38325;DHT22;24126;52.672;13.622;2023-02-02T07:35:13;9.30;74.00
38325;DHT22;24126;52.672;13.622;2023-02-02T07:37:41;9.30;73.90
38325;DHT22;24126;52.672;13.622;2023-02-02T07:40:08;9.40;73.80
38325;DHT22;24126;52.672;13.622;2023-02-02T07:42:35;9.40;73.70
38325;DHT22;24126;52.672;13.622;2023-02-02T07:45:02;9.40;73.40
38325;DHT22;24126;52.672;13.622;2023-02-02T07:47:30;9.40;73.30
38325;DHT22;24126;52.672;13.622;2023-02-02T07:49:57;9.40;72.90
38325;DHT22;24126;52.672;13.622;2023-02-02T07:52:24;9.40;73.00
38325;DHT22;24126;52.672;13.622;2023-02-02T07:54:51;9.40;72.70
38325;DHT22;24126;52.672;13.622;2023-02-02T07:57:18;9.40;72.50
38325;DHT22;24126;52.672;13.622;2023-02-02T07:59:45;9.40;72.40
38325;DHT22;24126;52.672;13.622;2023-02-02T08:02:15;9.40;72.20
38325;DHT22;24126;52.672;13.622;2023-02-02T08:04:42;9.50;72.00
38325;DHT22;24126;52.672;13.622;2023-02-02T08:07:09;9.50;72.00
38325;DHT22;24126;52.672;13.622;2023-02-02T08:09:36;9.50;71.80
38325;DHT22;24126;52.672;13.622;2023-02-02T08:12:03;9.50;71.80
38325;DHT22;24126;52.672;13.622;2023-02-02T08:14:30;9.50;71.50
38325;DHT22;24126;52.672;13.622;2023-02-02T08:16:58;9.50;71.60
38325;DHT22;24126;52.672;13.622;2023-02-02T08:19:25;9.60;71.60
38325;DHT22;24126;52.672;13.622;2023-02-02T08:21:52;9.60;71.30
38325;DHT22;24126;52.672;13.622;2023-02-02T08:24:19;9.60;71.10
38325;DHT22;24126;52.672;13.622;2023-02-02T08:26:46;9.80;70.50
38325;DHT22;24126;52.672;13.622;2023-02-02T08:29:13;10.40;70.60
38325;DHT22;24126;52.672;13.622;2023-02-02T08:31:42;11.00;67.90
38325;DHT22;24126;52.672;13.622;2023-02-02T08:34:10;11.10;67.20
38325;DHT22;24126;52.672;13.622;2023-02-02T08:36:38;10.90;66.30
38325;DHT22;24126;52.672;13.622;2023-02-02T08:39:07;10.80;66.60
38325;DHT22;24126;52.672;13.622;2023-02-02T08:41:36;10.70;67.10
38325;DHT22;24126;52.672;13.622;2023-02-02T08:44:04;10.60;68.10
38325;DHT22;24126;52.672;13.622;2023-02-02T08:46:31;10.50;68.00
38325;DHT22;24126;52.672;13.622;2023-02-02T08:48:58;10.40;67.90
38325;DHT22;24126;52.672;13.622;2023-02-02T08:51:25;10.30;68.00
38325;DHT22;24126;52.672;13.622;2023-02-02T08:53:52;10.30;68.10
38325;DHT22;24126;52.672;13.622;2023-02-02T08:56:19;10.20;68.30
38325;DHT22;24126;52.672;13.622;2023-02-02T08:58:48;10.20;68.40
38325;DHT22;24126;52.672;13.622;2023-02-02T09:01:16;10.20;68.30
38325;DHT22;24126;52.672;13.622;2023-02-02T09:03:43;10.20;69.30
38325;DHT22;24126;52.672;13.622;2023-02-02T09:06:11;10.70;68.30
38325;DHT22;24126;52.672;13.622;2023-02-02T09:08:38;10.90;67.80
38325;DHT22;24126;52.672;13.622;2023-02-02T09:11:06;11.20;67.50
38325;DHT22;24126;52.672;13.622;2023-02-02T09:13:34;11.70;66.40
38325;DHT22;24126;52.672;13.622;2023-02-02T09:16:02;12.10;65.20
38325;DHT22;24126;52.672;13.622;2023-02-02T09:18:30;12.30;63.70
38325;DHT22;24126;52.672;13.622;2023-02-02T09:21:04;12.40;64.00
38325;DHT22;24126;52.672;13.622;2023-02-02T09:23:35;12.50;63.40
38325;DHT22;24126;52.672;13.622;2023-02-02T09:26:13;12.40;62.80
38325;DHT22;24126;52.672;13.622;2023-02-02T09:28:42;12.40;63.40
38325;DHT22;24126;52.672;13.622;2023-02-02T09:31:09;12.20;63.80
38325;DHT22;24126;52.672;13.622;2023-02-02T09:33:36;12.00;64.30
38325;DHT22;24126;52.672;13.622;2023-02-02T09:36:07;11.80;64.90
38325;DHT22;24126;52.672;13.622;2023-02-02T09:38:35;11.60;65.80
38325;DHT22;24126;52.672;13.622;2023-02-02T09:41:13;11.50;66.50
38325;DHT22;24126;52.672;13.622;2023-02-02T09:49:00;11.30;67.90
38325;DHT22;24126;52.672;13.622;2023-02-02T09:51:30;11.30;68.00
38325;DHT22;24126;52.672;13.622;2023-02-02T09:54:03;11.20;67.70
38325;DHT22;24126;52.672;13.622;2023-02-02T09:56:40;11.30;68.40
38325;DHT22;24126;52.672;13.622;2023-02-02T09:59:11;11.50;68.10
38325;DHT22;24126;52.672;13.622;2023-02-02T10:01:41;11.60;67.30
38325;DHT22;24126;52.672;13.622;2023-02-02T10:04:14;11.60;66.70
38325;DHT22;24126;52.672;13.622;2023-02-02T10:06:47;11.50;66.80
38325;DHT22;24126;52.672;13.622;2023-02-02T10:11:49;11.00;68.20
38325;DHT22;24126;52.672;13.622;2023-02-02T10:14:28;10.80;68.40
38325;DHT22;24126;52.672;13.622;2023-02-02T10:16:55;10.70;69.10
38325;DHT22;24126;52.672;13.622;2023-02-02T10:19:25;10.60;69.80
38325;DHT22;24126;52.672;13.622;2023-02-02T10:22:02;10.60;69.80
38325;DHT22;24126;52.672;13.622;2023-02-02T10:24:31;10.60;69.60
38325;DHT22;24126;52.672;13.622;2023-02-02T10:27:01;10.50;69.20
38325;DHT22;24126;52.672;13.622;2023-02-02T10:29:32;10.40;69.40
38325;DHT22;24126;52.672;13.622;2023-02-02T10:32:13;10.50;69.90
38325;DHT22;24126;52.672;13.622;2023-02-02T10:34:56;10.70;70.20
38325;DHT22;24126;52.672;13.622;2023-02-02T10:42:28;11.50;67.70
38325;DHT22;24126;52.672;13.622;2023-02-02T10:44:56;11.70;66.90
38325;DHT22;24126;52.672;13.622;2023-02-02T10:47:28;11.80;66.20
38325;DHT22;24126;52.672;13.622;2023-02-02T10:50:16;12.00;65.90
38325;DHT22;24126;52.672;13.622;2023-02-02T10:52:45;12.10;65.10
38325;DHT22;24126;52.672;13.622;2023-02-02T10:57:45;12.30;64.00
38325;DHT22;24126;52.672;13.622;2023-02-02T11:00:17;12.40;64.00
38325;DHT22;24126;52.672;13.622;2023-02-02T11:02:48;12.40;63.40
38325;DHT22;24126;52.672;13.622;2023-02-02T11:05:18;12.40;63.10
38325;DHT22;24126;52.672;13.622;2023-02-02T11:08:09;12.20;62.70
38325;DHT22;24126;52.672;13.622;2023-02-02T11:10:37;12.00;63.70
38325;DHT22;24126;52.672;13.622;2023-02-02T11:13:04;11.70;65.00
38325;DHT22;24126;52.672;13.622;2023-02-02T11:15:32;11.50;64.70
38325;DHT22;24126;52.672;13.622;2023-02-02T11:18:11;11.20;65.50
38325;DHT22;24126;52.672;13.622;2023-02-02T11:20:39;11.10;66.60
38325;DHT22;24126;52.672;13.622;2023-02-02T11:23:08;11.00;67.20
38325;DHT22;24126;52.672;13.622;2023-02-02T11:25:42;10.90;67.90
38325;DHT22;24126;52.672;13.622;2023-02-02T11:28:20;10.90;67.50
38325;DHT22;24126;52.672;13.622;2023-02-02T11:30:50;10.90;67.70
38325;DHT22;24126;52.672;13.622;2023-02-02T11:35:52;10.90;67.90
38325;DHT22;24126;52.672;13.622;2023-02-02T11:38:19;10.90;67.80
38325;DHT22;24126;52.672;13.622;2023-02-02T11:43:24;10.90;67.60
38325;DHT22;24126;52.672;13.622;2023-02-02T11:46:00;10.80;67.50
38325;DHT22;24126;52.672;13.622;2023-02-02T11:48:32;10.70;67.80
38325;DHT22;24126;52.672;13.622;2023-02-02T11:51:00;10.80;67.20
38325;DHT22;24126;52.672;13.622;2023-02-02T11:55:55;11.10;66.70
38325;DHT22;24126;52.672;13.622;2023-02-02T11:58:25;11.20;66.20
38325;DHT22;24126;52.672;13.622;2023-02-02T12:01:02;11.30;65.30
38325;DHT22;24126;52.672;13.622;2023-02-02T12:03:36;11.30;65.30
38325;DHT22;24126;52.672;13.622;2023-02-02T12:06:20;11.20;65.00
38325;DHT22;24126;52.672;13.622;2023-02-02T12:08:47;11.10;65.20
38325;DHT22;24126;52.672;13.622;2023-02-02T12:14:00;11.20;65.60
38325;DHT22;24126;52.672;13.622;2023-02-02T12:19:02;11.30;65.00
38325;DHT22;24126;52.672;13.622;2023-02-02T12:26:40;11.50;64.80
38325;DHT22;24126;52.672;13.622;2023-02-02T12:29:29;11.60;64.60
38325;DHT22;24126;52.672;13.622;2023-02-02T12:37:24;11.90;64.20
38325;DHT22;24126;52.672;13.622;2023-02-02T12:42:44;12.10;64.00
38325;DHT22;24126;52.672;13.622;2023-02-02T12:58:11;12.60;62.00
38325;DHT22;24126;52.672;13.622;2023-02-02T13:09:02;12.30;61.20
38325;DHT22;24126;52.672;13.622;2023-02-02T13:14:07;12.00;61.20
38325;DHT22;24126;52.672;13.622;2023-02-02T13:16:36;11.80;60.50
38325;DHT22;24126;52.672;13.622;2023-02-02T13:19:06;11.60;60.60
38325;DHT22;24126;52.672;13.622;2023-02-02T13:21:35;11.50;60.40
38325;DHT22;24126;52.672;13.622;2023-02-02T13:24:04;11.40;60.60
38325;DHT22;24126;52.672;13.622;2023-02-02T13:26:42;11.20;60.80
38325;DHT22;24126;52.672;13.622;2023-02-02T13:31:50;11.10;60.50
38325;DHT22;24126;52.672;13.622;2023-02-02T13:36:55;10.90;61.20
38325;DHT22;24126;52.672;13.622;2023-02-02T13:39:31;10.90;61.70
38325;DHT22;24126;52.672;13.622;2023-02-02T13:41:59;10.80;61.80
38325;DHT22;24126;52.672;13.622;2023-02-02T13:44:30;10.80;62.20
38325;DHT22;24126;52.672;13.622;2023-02-02T13:46:59;10.80;62.20
38325;DHT22;24126;52.672;13.622;2023-02-02T13:49:30;10.80;62.30
38325;DHT22;24126;52.672;13.622;2023-02-02T13:54:42;10.70;62.40
38325;DHT22;24126;52.672;13.622;2023-02-02T13:57:23;10.60;62.40
38325;DHT22;24126;52.672;13.622;2023-02-02T14:02:21;10.60;62.00
38325;DHT22;24126;52.672;13.622;2023-02-02T14:04:53;10.50;62.40
38325;DHT22;24126;52.672;13.622;2023-02-02T14:10:21;10.50;61.90
38325;DHT22;24126;52.672;13.622;2023-02-02T14:12:48;10.50;62.00
38325;DHT22;24126;52.672;13.622;2023-02-02T14:15:16;10.50;62.10
38325;DHT22;24126;52.672;13.622;2023-02-02T14:20:37;10.50;61.60
38325;DHT22;24126;52.672;13.622;2023-02-02T14:23:01;10.50;61.80
38325;DHT22;24126;52.672;13.622;2023-02-02T14:28:02;10.50;61.90
38325;DHT22;24126;52.672;13.622;2023-02-02T14:30:31;10.40;61.10
38325;DHT22;24126;52.672;13.622;2023-02-02T14:33:18;10.40;61.60
38325;DHT22;24126;52.672;13.622;2023-02-02T14:38:31;10.30;61.50
38325;DHT22;24126;52.672;13.622;2023-02-02T14:44:08;10.30;61.60
38325;DHT22;24126;52.672;13.622;2023-02-02T14:46:35;10.20;61.70
38325;DHT22;24126;52.672;13.622;2023-02-02T14:49:05;10.20;61.70
38325;DHT22;24126;52.672;13.622;2023-02-02T14:51:33;10.20;61.70
38325;DHT22;24126;52.672;13.622;2023-02-02T14:54:17;10.10;62.30
38325;DHT22;24126;52.672;13.622;2023-02-02T14:56:45;10.10;61.70
38325;DHT22;24126;52.672;13.622;2023-02-02T14:59:16;10.00;61.50
38325;DHT22;24126;52.672;13.622;2023-02-02T15:01:51;10.00;62.00
38325;DHT22;24126;52.672;13.622;2023-02-02T15:06:47;9.90;61.80
38325;DHT22;24126;52.672;13.622;2023-02-02T15:19:52;9.70;61.80
38325;DHT22;24126;52.672;13.622;2023-02-02T15:24:48;9.70;61.90
38325;DHT22;24126;52.672;13.622;2023-02-02T15:27:16;9.60;61.80
38325;DHT22;24126;52.672;13.622;2023-02-02T15:29:45;9.60;61.90
38325;DHT22;24126;52.672;13.622;2023-02-02T15:32:14;9.60;61.80
38325;DHT22;24126;52.672;13.622;2023-02-02T15:34:42;9.50;61.80
38325;DHT22;24126;52.672;13.622;2023-02-02T15:37:15;9.50;62.00
38325;DHT22;24126;52.672;13.622;2023-02-02T15:39:46;9.50;61.80
38325;DHT22;24126;52.672;13.622;2023-02-02T15:42:25;9.40;61.80
38325;DHT22;24126;52.672;13.622;2023-02-02T15:47:57;9.30;62.60
38325;DHT22;24126;52.672;13.622;2023-02-02T15:50:24;9.30;62.00
38325;DHT22;24126;52.672;13.622;2023-02-02T15:52:52;9.20;62.10
38325;DHT22;24126;52.672;13.622;2023-02-02T15:55:42;9.20;62.20
38325;DHT22;24126;52.672;13.622;2023-02-02T15:58:20;9.10;62.10
38325;DHT22;24126;52.672;13.622;2023-02-02T16:00:53;9.10;62.10
38325;DHT22;24126;52.672;13.622;2023-02-02T16:03:22;9.00;63.00
38325;DHT22;24126;52.672;13.622;2023-02-02T16:05:52;9.00;62.30
38325;DHT22;24126;52.672;13.622;2023-02-02T16:08:23;9.00;62.10
38325;DHT22;24126;52.672;13.622;2023-02-02T16:11:12;8.90;62.10
38325;DHT22;24126;52.672;13.622;2023-02-02T16:13:40;8.90;62.30
38325;DHT22;24126;52.672;13.622;2023-02-02T16:16:20;8.80;62.20
38325;DHT22;24126;52.672;13.622;2023-02-02T16:18:47;8.70;62.30
38325;DHT22;24126;52.672;13.622;2023-02-02T16:21:26;8.70;62.50
38325;DHT22;24126;52.672;13.622;2023-02-02T16:23:54;8.60;62.70
38325;DHT22;24126;52.672;13.622;2023-02-02T16:26:23;8.60;63.10
38325;DHT22;24126;52.672;13.622;2023-02-02T16:28:51;8.50;63.20
38325;DHT22;24126;52.672;13.622;2023-02-02T16:31:18;8.50;63.40
38325;DHT22;24126;52.672;13.622;2023-02-02T16:33:45;8.40;63.50
38325;DHT22;24126;52.672;13.622;2023-02-02T16:36:22;8.30;63.70
38325;DHT22;24126;52.672;13.622;2023-02-02T16:38:50;8.30;63.90
38325;DHT22;24126;52.672;13.622;2023-02-02T16:43:51;8.20;64.30
38325;DHT22;24126;52.672;13.622;2023-02-02T16:49:04;8.00;64.40
38325;DHT22;24126;52.672;13.622;2023-02-02T16:51:31;8.00;64.40
38325;DHT22;24126;52.672;13.622;2023-02-02T16:54:20;8.00;64.40
38325;DHT22;24126;52.672;13.622;2023-02-02T16:56:51;7.90;64.30
38325;DHT22;24126;52.672;13.622;2023-02-02T16:59:26;7.80;64.30
38325;DHT22;24126;52.672;13.622;2023-02-02T17:02:05;7.70;64.40
38325;DHT22;24126;52.672;13.622;2023-02-02T17:04:41;7.70;64.70
38325;DHT22;24126;52.672;13.622;2023-02-02T17:07:13;7.60;64.60
38325;DHT22;24126;52.672;13.622;2023-02-02T17:09:41;7.60;64.90
38325;DHT22;24126;52.672;13.622;2023-02-02T17:14:53;7.50;64.90
38325;DHT22;24126;52.672;13.622;2023-02-02T17:17:21;7.50;64.90
38325;DHT22;24126;52.672;13.622;2023-02-02T17:19:49;7.40;65.00
38325;DHT22;24126;52.672;13.622;2023-02-02T17:22:16;7.40;65.30
38325;DHT22;24126;52.672;13.622;2023-02-02T17:24:44;7.40;66.20
38325;DHT22;24126;52.672;13.622;2023-02-02T17:27:16;7.30;65.60
38325;DHT22;24126;52.672;13.622;2023-02-02T17:29:44;7.30;65.70
38325;DHT22;24126;52.672;13.622;2023-02-02T17:32:14;7.30;65.80
38325;DHT22;24126;52.672;13.622;2023-02-02T17:34:41;7.30;65.90
38325;DHT22;24126;52.672;13.622;2023-02-02T17:37:08;7.30;65.90
38325;DHT22;24126;52.672;13.622;2023-02-02T17:39:35;7.30;66.10
38325;DHT22;24126;52.672;13.622;2023-02-02T17:42:02;7.30;66.20
38325;DHT22;24126;52.672;13.622;2023-02-02T17:44:29;7.20;66.00
38325;DHT22;24126;52.672;13.622;2023-02-02T17:46:56;7.20;66.10
38325;DHT22;24126;52.672;13.622;2023-02-02T17:49:23;7.20;66.30
38325;DHT22;24126;52.672;13.622;2023-02-02T17:51:50;7.20;66.20
38325;DHT22;24126;52.672;13.622;2023-02-02T17:54:17;7.20;66.50